createdAt,value
2018-12-27T00:00:36.645Z,101333.28
2018-12-27T00:03:11.531Z,101336.31
2018-12-27T00:05:46.693Z,101333.81
2018-12-27T00:08:20.597Z,101333.70
2018-12-27T00:10:53.901Z,101327.45
2018-12-27T00:13:27.204Z,101328.94
2018-12-27T00:16:01.788Z,101329.02
2018-12-27T00:18:34.832Z,101327.73
2018-12-27T00:21:08.132Z,101323.81
2018-12-27T00:23:41.680Z,101321.80
2018-12-27T00:26:15.276Z,101321.38
2018-12-27T00:28:50.537Z,101318.20
2018-12-27T00:31:25.473Z,101316.16
2018-12-27T00:33:59.412Z,101326.62
2018-12-27T00:36:33.349Z,101323.19
2018-12-27T00:39:08.805Z,101317.12
2018-12-27T00:41:41.668Z,101317.23
2018-12-27T00:44:14.701Z,101320.66
2018-12-27T00:46:48.003Z,101323.74
2018-12-27T00:49:23.968Z,101322.78
2018-12-27T00:51:57.375Z,101319.30
2018-12-27T00:54:30.754Z,101322.50
2018-12-27T00:57:06.961Z,101315.24
2018-12-27T00:59:39.997Z,101318.03
2018-12-27T01:02:13.375Z,101320.47
2018-12-27T01:04:46.328Z,101320.86
2018-12-27T01:07:19.787Z,101312.48
2018-12-27T01:09:53.136Z,101309.02
2018-12-27T01:12:26.793Z,101299.86
2018-12-27T01:15:02.807Z,101303.64
2018-12-27T01:17:37.496Z,101303.58
2018-12-27T01:20:10.924Z,101294.41
2018-12-27T01:22:43.826Z,101293.62
2018-12-27T01:25:17.187Z,101292.66
2018-12-27T01:27:50.118Z,101289.74
2018-12-27T01:30:23.024Z,101287.25
2018-12-27T01:32:58.239Z,101292.44
2018-12-27T01:35:31.161Z,101288.31
2018-12-27T01:38:08.499Z,101291.53
2018-12-27T01:40:42.682Z,101288.86
2018-12-27T01:43:16.881Z,101286.71
2018-12-27T01:45:50.735Z,101280.85
2018-12-27T01:48:24.144Z,101274.12
2018-12-27T01:50:57.060Z,101273.30
2018-12-27T01:53:30.460Z,101271.84
2018-12-27T01:56:04.234Z,101270.38
2018-12-27T01:58:37.688Z,101266.34
2018-12-27T02:01:13.573Z,101271.48
2018-12-27T02:03:48.148Z,101271.76
2018-12-27T02:06:21.011Z,101266.77
2018-12-27T02:08:55.074Z,101262.13
2018-12-27T02:11:31.184Z,101260.63
2018-12-27T02:14:04.601Z,101259.70
2018-12-27T02:16:38.474Z,101258.03
2018-12-27T02:22:30.901Z,101267.19
2018-12-27T02:25:03.807Z,101268.17
2018-12-27T02:27:38.964Z,101269.34
2018-12-27T02:30:13.407Z,101266.59
2018-12-27T02:32:46.361Z,101260.35
2018-12-27T02:35:20.751Z,101258.57
2018-12-27T02:37:53.637Z,101257.63
2018-12-27T02:40:28.354Z,101253.02
2018-12-27T02:43:02.086Z,101252.92
2018-12-27T02:45:34.940Z,101247.33
2018-12-27T02:48:08.057Z,101247.39
2018-12-27T02:50:42.880Z,101249.31
2018-12-27T02:53:16.639Z,101245.65
2018-12-27T02:55:50.305Z,101239.31
2018-12-27T02:58:23.609Z,101234.20
2018-12-27T03:00:56.602Z,101231.73
2018-12-27T03:03:29.591Z,101229.69
2018-12-27T03:06:02.976Z,101228.94
2018-12-27T03:08:36.172Z,101226.56
2018-12-27T03:11:09.707Z,101218.94
2018-12-27T03:13:46.523Z,101222.23
2018-12-27T03:16:22.801Z,101221.13
2018-12-27T03:18:56.529Z,101220.62
2018-12-27T03:21:29.887Z,101212.94
2018-12-27T03:24:02.656Z,101213.08
2018-12-27T03:26:35.831Z,101212.10
2018-12-27T03:29:09.605Z,101207.09
2018-12-27T03:31:42.785Z,101200.62
2018-12-27T03:34:18.082Z,101199.69
2018-12-27T03:36:52.494Z,101192.20
2018-12-27T03:39:25.347Z,101195.05
2018-12-27T03:41:59.098Z,101195.44
2018-12-27T03:44:33.571Z,101184.94
2018-12-27T03:47:06.481Z,101182.12
2018-12-27T03:49:39.648Z,101182.91
2018-12-27T03:52:13.081Z,101178.99
2018-12-27T03:54:46.976Z,101170.94
2018-12-27T03:57:19.871Z,101175.11
2018-12-27T03:59:53.329Z,101176.66
2018-12-27T04:02:26.236Z,101172.13
2018-12-27T04:04:59.198Z,101172.07
2018-12-27T04:07:33.685Z,101172.09
2018-12-27T04:10:07.355Z,101174.31
2018-12-27T04:12:40.257Z,101164.95
2018-12-27T04:15:15.981Z,101170.39
2018-12-27T04:17:50.288Z,101176.55
2018-12-27T04:20:23.179Z,101175.00
2018-12-27T04:22:56.519Z,101174.44
2018-12-27T04:25:29.962Z,101170.76
2018-12-27T04:28:03.845Z,101170.48
2018-12-27T04:30:38.432Z,101167.77
2018-12-27T04:33:17.504Z,101166.20
2018-12-27T04:35:53.420Z,101171.66
2018-12-27T04:38:26.439Z,101174.77
2018-12-27T04:40:59.307Z,101170.02
2018-12-27T04:43:33.483Z,101175.98
2018-12-27T04:46:07.185Z,101176.55
2018-12-27T04:48:40.132Z,101175.55
2018-12-27T04:51:13.577Z,101172.84
2018-12-27T04:53:46.480Z,101168.41
2018-12-27T04:56:19.336Z,101169.81
2018-12-27T04:58:52.700Z,101173.59
2018-12-27T05:01:26.010Z,101169.36
2018-12-27T05:03:59.027Z,101170.13
2018-12-27T05:06:32.544Z,101165.04
2018-12-27T05:09:08.274Z,101167.34
2018-12-27T05:11:41.140Z,101168.23
2018-12-27T05:14:14.481Z,101169.11
2018-12-27T05:16:47.265Z,101166.36
2018-12-27T05:19:20.279Z,101163.09
2018-12-27T05:21:54.862Z,101158.22
2018-12-27T05:24:29.325Z,101161.09
2018-12-27T05:27:02.346Z,101157.41
2018-12-27T05:29:36.627Z,101164.11
2018-12-27T05:32:09.835Z,101164.70
2018-12-27T05:34:42.651Z,101167.66
2018-12-27T05:37:16.112Z,101166.23
2018-12-27T05:39:53.850Z,101170.92
2018-12-27T05:42:26.755Z,101176.86
2018-12-27T05:45:00.284Z,101177.23
2018-12-27T05:47:35.196Z,101177.62
2018-12-27T05:50:08.236Z,101181.42
2018-12-27T05:52:42.425Z,101179.59
2018-12-27T05:55:15.461Z,101179.40
2018-12-27T05:57:48.371Z,101181.20
2018-12-27T06:00:21.814Z,101182.91
2018-12-27T06:02:54.763Z,101187.75
2018-12-27T06:05:27.919Z,101193.19
2018-12-27T06:08:02.408Z,101192.52
2018-12-27T06:10:35.407Z,101187.47
2018-12-27T06:13:08.327Z,101191.91
2018-12-27T06:15:41.743Z,101185.78
2018-12-27T06:18:14.637Z,101187.13
2018-12-27T06:20:47.471Z,101184.85
2018-12-27T06:23:20.840Z,101179.61
2018-12-27T06:25:54.074Z,101184.86
2018-12-27T06:28:27.184Z,101185.78
2018-12-27T06:31:00.609Z,101184.02
2018-12-27T06:33:34.626Z,101181.32
2018-12-27T06:36:08.632Z,101185.47
2018-12-27T06:38:42.308Z,101179.87
2018-12-27T06:41:15.524Z,101181.27
2018-12-27T06:43:48.406Z,101180.11
2018-12-27T06:46:21.857Z,101176.23
2018-12-27T06:48:54.795Z,101177.41
2018-12-27T06:51:27.593Z,101172.80
2018-12-27T06:54:02.617Z,101176.28
2018-12-27T06:56:35.617Z,101176.30
2018-12-27T06:59:08.532Z,101180.03
2018-12-27T07:01:43.835Z,101177.54
2018-12-27T07:04:17.087Z,101181.70
2018-12-27T07:06:50.165Z,101181.94
2018-12-27T07:09:25.511Z,101183.36
2018-12-27T07:11:59.471Z,101179.20
2018-12-27T07:14:32.414Z,101179.59
2018-12-27T07:17:05.882Z,101183.45
2018-12-27T07:19:39.819Z,101181.36
2018-12-27T07:22:12.936Z,101182.81
2018-12-27T07:24:46.432Z,101183.48
2018-12-27T07:27:19.401Z,101184.81
2018-12-27T07:29:52.442Z,101190.65
2018-12-27T07:32:25.806Z,101185.57
2018-12-27T07:34:58.857Z,101188.88
2018-12-27T07:37:32.230Z,101183.20
2018-12-27T07:40:07.018Z,101183.88
2018-12-27T07:42:40.032Z,101188.78
2018-12-27T07:45:14.589Z,101186.11
2018-12-27T07:47:48.103Z,101187.11
2018-12-27T07:50:21.061Z,101193.54
2018-12-27T07:52:54.014Z,101192.09
2018-12-27T07:55:29.149Z,101191.61
2018-12-27T07:58:02.395Z,101189.64
2018-12-27T08:00:36.527Z,101186.19
2018-12-27T08:03:10.876Z,101175.75
2018-12-27T08:05:44.769Z,101173.45
2018-12-27T08:08:17.672Z,101180.08
2018-12-27T08:10:50.909Z,101179.53
2018-12-27T08:13:24.786Z,101177.26
2018-12-27T08:16:00.491Z,101171.88
2018-12-27T08:18:33.745Z,101167.80
2018-12-27T08:21:06.685Z,101171.09
2018-12-27T08:23:40.583Z,101179.52
2018-12-27T08:26:15.417Z,101169.56
2018-12-27T08:28:48.952Z,101168.28
2018-12-27T08:31:21.935Z,101177.02
2018-12-27T08:33:57.101Z,101181.17
2018-12-27T08:36:30.173Z,101176.27
2018-12-27T08:39:04.689Z,101173.98
2018-12-27T08:41:39.128Z,101170.82
2018-12-27T08:44:12.005Z,101175.69
2018-12-27T08:46:44.995Z,101175.37
2018-12-27T08:49:18.394Z,101176.95
2018-12-27T08:51:52.977Z,101172.28
2018-12-27T08:54:28.916Z,101174.34
2018-12-27T08:57:02.256Z,101167.05
2018-12-27T08:59:36.273Z,101161.30
2018-12-27T09:02:11.800Z,101158.22
2018-12-27T09:04:45.465Z,101150.30
2018-12-27T09:07:19.312Z,101149.64
2018-12-27T09:09:52.860Z,101145.05
2018-12-27T09:12:26.652Z,101142.14
2018-12-27T09:14:59.554Z,101147.90
2018-12-27T09:17:37.123Z,101142.42
2018-12-27T09:20:10.671Z,101142.14
2018-12-27T09:22:44.039Z,101137.37
2018-12-27T09:25:18.982Z,101135.92
2018-12-27T09:27:52.004Z,101127.66
2018-12-27T09:30:25.459Z,101130.88
2018-12-27T09:32:58.362Z,101128.09
2018-12-27T09:35:32.105Z,101119.81
2018-12-27T09:38:07.691Z,101121.58
2018-12-27T09:40:41.268Z,101127.91
2018-12-27T09:43:16.256Z,101124.93
2018-12-27T09:45:49.744Z,101128.95
2018-12-27T09:48:24.208Z,101129.22
2018-12-27T09:50:59.171Z,101132.13
2018-12-27T09:53:33.125Z,101131.81
2018-12-27T09:56:06.247Z,101128.84
2018-12-27T09:58:39.892Z,101126.98
2018-12-27T10:01:13.009Z,101129.31
2018-12-27T10:03:45.904Z,101122.71
2018-12-27T10:06:19.363Z,101112.59
2018-12-27T10:08:56.436Z,101105.30
2018-12-27T10:11:29.447Z,101102.77
2018-12-27T10:14:08.088Z,101101.68
2018-12-27T10:16:42.239Z,101096.56
2018-12-27T10:19:16.072Z,101103.62
2018-12-27T10:21:50.401Z,101102.70
2018-12-27T10:24:24.277Z,101098.94
2018-12-27T10:26:57.469Z,101087.44
2018-12-27T10:29:35.796Z,101082.27
2018-12-27T10:32:08.842Z,101067.29
2018-12-27T10:34:42.285Z,101069.66
2018-12-27T10:37:20.279Z,101076.83
2018-12-27T10:39:53.296Z,101076.13
2018-12-27T10:42:26.449Z,101079.50
2018-12-27T10:45:04.205Z,101078.78
2018-12-27T10:47:37.969Z,101074.77
2018-12-27T10:50:13.393Z,101072.53
2018-12-27T10:52:49.096Z,101075.06
2018-12-27T10:55:24.865Z,101071.36
2018-12-27T10:58:00.240Z,101063.46
2018-12-27T11:00:37.363Z,101056.67
2018-12-27T11:03:11.337Z,101050.61
2018-12-27T11:05:48.704Z,101049.95
2018-12-27T11:08:26.626Z,101052.59
2018-12-27T11:11:01.489Z,101046.05
2018-12-27T11:13:34.670Z,101042.71
2018-12-27T11:16:09.362Z,101039.16
2018-12-27T11:18:43.196Z,101033.80
2018-12-27T11:21:17.441Z,101033.64
2018-12-27T11:23:50.921Z,101028.38
2018-12-27T11:26:23.890Z,101025.71
2018-12-27T11:28:59.484Z,101020.92
2018-12-27T11:31:35.485Z,101010.22
2018-12-27T11:34:08.423Z,101004.05
2018-12-27T11:36:42.167Z,101007.17
2018-12-27T11:39:15.951Z,101005.68
2018-12-27T11:41:49.266Z,100994.27
2018-12-27T11:44:22.107Z,100989.05
2018-12-27T11:46:55.364Z,100987.90
2018-12-27T11:49:28.789Z,100984.56
2018-12-27T11:52:02.806Z,100977.38
2018-12-27T11:54:36.770Z,100973.41
2018-12-27T11:57:11.689Z,100969.55
2018-12-27T11:59:45.206Z,100967.35
2018-12-27T12:02:19.209Z,100969.29
2018-12-27T12:04:54.837Z,100965.54
2018-12-27T12:07:29.638Z,100966.86
2018-12-27T12:10:04.341Z,100960.48
2018-12-27T12:12:39.820Z,100955.67
2018-12-27T12:15:14.745Z,100957.76
2018-12-27T12:17:48.385Z,100958.80
2018-12-27T12:20:21.400Z,100953.68
2018-12-27T12:22:55.052Z,100955.54
2018-12-27T12:25:28.034Z,100951.31
2018-12-27T12:28:01.686Z,100950.09
2018-12-27T12:30:36.782Z,100945.92
2018-12-27T12:33:10.239Z,100946.84
2018-12-27T12:35:46.180Z,100946.75
2018-12-27T12:38:20.175Z,100939.22
2018-12-27T12:40:53.826Z,100943.66
2018-12-27T12:43:33.429Z,100942.23
2018-12-27T12:46:08.040Z,100945.25
2018-12-27T12:48:41.133Z,100954.00
2018-12-27T12:51:16.568Z,100955.56
2018-12-27T12:53:51.746Z,100963.38
2018-12-27T12:56:26.741Z,100969.81
2018-12-27T12:59:02.417Z,100965.22
2018-12-27T13:01:35.409Z,100970.76
2018-12-27T13:04:09.865Z,100968.44
2018-12-27T13:06:46.391Z,100972.98
2018-12-27T13:09:20.740Z,100979.37
2018-12-27T13:11:55.395Z,100980.24
2018-12-27T13:14:29.228Z,100980.61
2018-12-27T13:17:06.304Z,100979.70
2018-12-27T13:19:39.257Z,100977.77
2018-12-27T13:22:14.853Z,100977.53
2018-12-27T13:24:48.722Z,100982.30
2018-12-27T13:27:22.596Z,100976.95
2018-12-27T13:29:58.923Z,100977.89
2018-12-27T13:32:31.888Z,100981.06
2018-12-27T13:35:06.697Z,100979.38
2018-12-27T13:37:41.023Z,100978.42
2018-12-27T13:40:14.108Z,100979.02
2018-12-27T13:42:49.903Z,100977.98
2018-12-27T13:45:22.884Z,100980.16
2018-12-27T13:47:57.071Z,100975.27
2018-12-27T13:50:30.539Z,100975.11
2018-12-27T13:53:06.793Z,100973.40
2018-12-27T13:55:39.771Z,100974.88
2018-12-27T13:58:13.877Z,100969.01
2018-12-27T14:00:48.184Z,100960.88
2018-12-27T14:03:23.043Z,100968.69
2018-12-27T14:06:06.799Z,100974.27
2018-12-27T14:08:39.818Z,100974.58
2018-12-27T14:11:15.608Z,100972.39
2018-12-27T14:13:50.615Z,100984.80
2018-12-27T14:16:25.901Z,100991.02
2018-12-27T14:18:58.953Z,100980.23
2018-12-27T14:21:32.494Z,100972.02
2018-12-27T14:24:06.439Z,100973.30
2018-12-27T14:26:42.929Z,100965.16
2018-12-27T14:29:16.785Z,100961.52
2018-12-27T14:31:49.901Z,100973.27
2018-12-27T14:34:23.194Z,100976.59
2018-12-27T14:37:00.762Z,100977.97
2018-12-27T14:39:35.472Z,100976.47
2018-12-27T14:42:12.213Z,100974.14
2018-12-27T14:44:46.464Z,100975.78
2018-12-27T14:47:20.538Z,100983.61
2018-12-27T14:49:55.133Z,100985.81
2018-12-27T14:52:32.412Z,100981.80
2018-12-27T14:55:05.583Z,100990.97
2018-12-27T14:57:39.201Z,100990.73
2018-12-27T15:00:15.288Z,100983.95
2018-12-27T15:02:52.173Z,100979.50
2018-12-27T15:05:25.024Z,100980.68
2018-12-27T15:07:59.675Z,100982.48
2018-12-27T15:10:32.565Z,100978.53
2018-12-27T15:13:06.245Z,100977.02
2018-12-27T15:15:40.208Z,100976.31
2018-12-27T15:18:13.320Z,100974.64
2018-12-27T15:20:46.631Z,100967.20
2018-12-27T15:23:22.389Z,100969.17
2018-12-27T15:25:56.909Z,100965.55
2018-12-27T15:28:32.174Z,100970.88
2018-12-27T15:31:06.079Z,100962.00
2018-12-27T15:33:39.193Z,100961.94
2018-12-27T15:36:12.771Z,100959.02
2018-12-27T15:38:48.235Z,100964.80
2018-12-27T15:41:23.386Z,100967.23
2018-12-27T15:43:59.904Z,100964.31
2018-12-27T15:46:35.759Z,100958.60
2018-12-27T15:49:18.470Z,100959.29
2018-12-27T15:51:52.471Z,100959.69
2018-12-27T15:54:29.674Z,100966.35
2018-12-27T15:57:02.827Z,100963.58
2018-12-27T15:59:41.593Z,100973.58
2018-12-27T16:02:18.431Z,100978.44
2018-12-27T16:04:52.304Z,100983.15
2018-12-27T16:07:31.941Z,100981.47
2018-12-27T16:10:06.352Z,100979.07
2018-12-27T16:12:43.982Z,100974.75
2018-12-27T16:15:18.227Z,100970.85
2018-12-27T16:17:51.343Z,100978.89
2018-12-27T16:20:25.451Z,100976.48
2018-12-27T16:22:59.118Z,100978.25
2018-12-27T16:25:34.092Z,100977.19
2018-12-27T16:28:13.102Z,100978.02
2018-12-27T16:30:46.940Z,100968.44
2018-12-27T16:33:20.994Z,100969.31
2018-12-27T16:36:03.572Z,100967.21
2018-12-27T16:38:37.933Z,100970.98
2018-12-27T16:41:12.745Z,100972.64
2018-12-27T16:43:46.157Z,100980.43
2018-12-27T16:46:19.156Z,100985.27
2018-12-27T16:48:52.069Z,100987.67
2018-12-27T16:51:25.743Z,100985.55
2018-12-27T16:53:58.818Z,100982.27
2018-12-27T16:56:33.584Z,100986.28
2018-12-27T16:59:09.822Z,100986.63
2018-12-27T17:01:42.907Z,100988.23
2018-12-27T17:04:16.088Z,100984.88
2018-12-27T17:06:50.190Z,100984.53
2018-12-27T17:09:24.948Z,100984.47
2018-12-27T17:12:02.628Z,100988.66
2018-12-27T17:14:36.687Z,100987.63
2018-12-27T17:17:12.395Z,100993.34
2018-12-27T17:19:45.452Z,100991.82
2018-12-27T17:22:23.976Z,100987.76
2018-12-27T17:24:58.877Z,100989.13
2018-12-27T17:27:33.831Z,100987.91
2018-12-27T17:30:12.572Z,100986.18
2018-12-27T17:32:47.165Z,100983.06
2018-12-27T17:35:20.649Z,100984.31
2018-12-27T17:37:55.019Z,100987.73
2018-12-27T17:40:28.025Z,100983.98
2018-12-27T17:43:04.600Z,100986.11
2018-12-27T17:45:39.522Z,100989.35
2018-12-27T17:48:13.607Z,100990.97
2018-12-27T17:50:46.601Z,100995.20
2018-12-27T17:53:21.924Z,100992.86
2018-12-27T17:55:55.685Z,100988.91
2018-12-27T17:58:28.553Z,100991.00
2018-12-27T18:01:02.066Z,100993.11
2018-12-27T18:03:35.438Z,100991.39
2018-12-27T18:06:09.474Z,100988.95
2018-12-27T18:08:43.861Z,100989.34
2018-12-27T18:11:17.670Z,100988.75
2018-12-27T18:13:50.596Z,100990.36
2018-12-27T18:16:25.092Z,100980.28
2018-12-27T18:18:59.387Z,100979.00
2018-12-27T18:21:32.563Z,100985.39
2018-12-27T18:24:06.456Z,100983.32
2018-12-27T18:26:39.440Z,100986.59
2018-12-27T18:29:13.158Z,100989.83
2018-12-27T18:31:46.531Z,100992.29
2018-12-27T18:34:21.500Z,100996.34
2018-12-27T18:36:55.748Z,100998.08
2018-12-27T18:39:30.892Z,101001.16
2018-12-27T18:42:03.825Z,101001.97
2018-12-27T18:44:38.130Z,101001.04
2018-12-27T18:47:11.631Z,100998.33
2018-12-27T18:49:45.556Z,100997.85
2018-12-27T18:52:19.441Z,101000.63
2018-12-27T18:54:53.113Z,101002.52
2018-12-27T18:57:27.592Z,101005.52
2018-12-27T19:00:07.860Z,101007.56
2018-12-27T19:02:43.676Z,101009.75
2018-12-27T19:05:18.504Z,101008.53
2018-12-27T19:07:53.309Z,101012.86
2018-12-27T19:10:28.601Z,101012.92
2018-12-27T19:13:11.615Z,101012.73
2018-12-27T19:15:57.312Z,101013.77
2018-12-27T19:18:37.102Z,101007.47
2018-12-27T19:21:44.506Z,101010.28
2018-12-27T19:24:20.949Z,101015.30
2018-12-27T19:26:57.676Z,101014.09
2018-12-27T19:29:32.522Z,101014.82
2018-12-27T19:32:07.900Z,101019.04
2018-12-27T19:34:48.466Z,101013.78
2018-12-27T19:37:22.690Z,101016.39
2018-12-27T19:39:56.379Z,101017.25
2018-12-27T19:42:31.097Z,101017.83
2018-12-27T19:45:15.594Z,101015.67
2018-12-27T19:47:48.982Z,101021.00
2018-12-27T19:50:22.784Z,101020.67
2018-12-27T19:52:58.093Z,101015.75
2018-12-27T19:55:42.568Z,101014.92
2018-12-27T19:58:18.862Z,101013.88
2018-12-27T20:00:56.135Z,101015.45
2018-12-27T20:03:32.057Z,101015.39
2018-12-27T20:06:07.011Z,101008.00
2018-12-27T20:08:41.143Z,101000.06
2018-12-27T20:11:15.898Z,100991.39
2018-12-27T20:13:50.556Z,100997.04
2018-12-27T20:16:26.314Z,100992.28
2018-12-27T20:19:00.178Z,100998.58
2018-12-27T20:21:37.366Z,101002.80
2018-12-27T20:24:13.956Z,100993.69
2018-12-27T20:26:54.318Z,100996.27
2018-12-27T20:29:29.083Z,100992.23
2018-12-27T20:32:09.702Z,100995.85
2018-12-27T20:34:47.417Z,100995.42
2018-12-27T20:37:26.160Z,100995.43
2018-12-27T20:40:00.586Z,100995.76
2018-12-27T20:42:37.315Z,101000.28
2018-12-27T20:45:13.408Z,100990.31
2018-12-27T20:47:48.223Z,100987.92
2018-12-27T20:50:22.586Z,100987.55
2018-12-27T20:52:57.745Z,100993.66
2018-12-27T20:55:33.185Z,100999.79
2018-12-27T20:58:06.151Z,101000.56
2018-12-27T21:00:40.040Z,100996.78
2018-12-27T21:03:17.508Z,100996.50
2018-12-27T21:05:57.921Z,101002.42
2018-12-27T21:08:32.058Z,100998.66
2018-12-27T21:11:06.421Z,101012.22
2018-12-27T21:13:40.848Z,101014.59
2018-12-27T21:16:14.709Z,101015.07
2018-12-27T21:18:52.378Z,101015.03
2018-12-27T21:21:26.721Z,101014.18
2018-12-27T21:24:02.063Z,101013.57
2018-12-27T21:26:37.510Z,101021.24
2018-12-27T21:29:12.336Z,101021.80
2018-12-27T21:31:45.480Z,101022.20
2018-12-27T21:34:19.394Z,101020.00
2018-12-27T21:36:53.448Z,101008.78
2018-12-27T21:39:28.945Z,101003.41
2018-12-27T21:42:03.933Z,101002.16
2018-12-27T21:44:38.833Z,101003.23
2018-12-27T21:47:13.548Z,101003.45
2018-12-27T21:49:46.825Z,101009.13
2018-12-27T21:52:19.973Z,101011.53
2018-12-27T21:54:55.718Z,101004.48
2018-12-27T21:57:28.768Z,101011.05
2018-12-27T22:00:06.894Z,101004.41
2018-12-27T22:02:40.618Z,100997.50
2018-12-27T22:05:13.722Z,100999.05
2018-12-27T22:07:47.709Z,100991.39
2018-12-27T22:10:20.701Z,100990.00
2018-12-27T22:12:55.277Z,100990.49
2018-12-27T22:15:28.968Z,100988.94
2018-12-27T22:18:02.768Z,100992.45
2018-12-27T22:20:37.083Z,100997.06
2018-12-27T22:23:12.678Z,100997.66
2018-12-27T22:25:45.755Z,100996.70
2018-12-27T22:28:20.641Z,100993.48
2018-12-27T22:30:55.665Z,100991.32
2018-12-27T22:33:30.581Z,101001.00
2018-12-27T22:36:04.381Z,101005.83
2018-12-27T22:38:38.132Z,101011.30
2018-12-27T22:41:11.327Z,101017.14
2018-12-27T22:43:47.681Z,101017.39
2018-12-27T22:46:22.177Z,101029.19
2018-12-27T22:48:55.370Z,101021.20
2018-12-27T22:51:29.111Z,101028.41
2018-12-27T22:54:02.415Z,101024.25
2018-12-27T22:56:35.513Z,101022.68
2018-12-27T22:59:13.272Z,101013.66
2018-12-27T23:01:46.195Z,101016.01
2018-12-27T23:04:19.448Z,101011.88
2018-12-27T23:06:53.106Z,101010.78
2018-12-27T23:09:26.234Z,101005.36
2018-12-27T23:11:59.143Z,101009.20
2018-12-27T23:14:36.120Z,101012.45
2018-12-27T23:17:09.007Z,101013.50
2018-12-27T23:19:42.951Z,101013.22
2018-12-27T23:22:17.270Z,101016.72
2018-12-27T23:24:50.301Z,101010.41
2018-12-27T23:27:24.299Z,101006.44
2018-12-27T23:29:58.491Z,101008.39
2018-12-27T23:32:33.022Z,101010.02
2018-12-27T23:35:07.868Z,101014.25
2018-12-27T23:37:41.377Z,101014.70
2018-12-27T23:40:16.514Z,101013.58
2018-12-27T23:42:50.637Z,101010.53
2018-12-27T23:45:24.127Z,101003.00
2018-12-27T23:47:57.130Z,101007.42
2018-12-27T23:50:30.102Z,101018.12
2018-12-27T23:53:03.542Z,101017.49
2018-12-27T23:55:37.424Z,101009.84
2018-12-27T23:58:10.582Z,101002.42
